createdAt,value
2018-07-31T00:00:25.855Z,21.70
2018-07-31T00:02:54.916Z,21.70
2018-07-31T00:05:23.962Z,21.80
2018-07-31T00:07:53.628Z,21.70
2018-07-31T00:10:22.655Z,21.90
2018-07-31T00:12:51.673Z,21.90
2018-07-31T00:15:20.706Z,21.80
2018-07-31T00:17:49.804Z,21.70
2018-07-31T00:20:18.820Z,21.70
2018-07-31T00:22:47.850Z,21.70
2018-07-31T00:25:16.887Z,21.40
2018-07-31T00:27:45.928Z,21.40
2018-07-31T00:30:14.929Z,21.50
2018-07-31T00:32:44.033Z,21.40
2018-07-31T00:35:13.044Z,21.40
2018-07-31T00:37:42.099Z,21.40
2018-07-31T00:40:11.155Z,21.30
2018-07-31T00:42:40.233Z,21.20
2018-07-31T00:45:09.273Z,21.20
2018-07-31T00:52:35.658Z,21.10
2018-07-31T00:55:04.797Z,21.10
2018-07-31T00:57:33.846Z,21.10
2018-07-31T01:00:02.913Z,21.20
2018-07-31T01:02:31.906Z,21.10
2018-07-31T01:05:00.938Z,21.00
2018-07-31T01:07:29.968Z,20.90
2018-07-31T01:09:58.998Z,20.80
2018-07-31T01:12:28.000Z,20.70
2018-07-31T01:17:25.660Z,20.60
2018-07-31T01:19:54.665Z,20.50
2018-07-31T01:22:23.729Z,20.40
2018-07-31T01:24:53.025Z,20.50
2018-07-31T01:27:22.054Z,20.50
2018-07-31T01:29:51.112Z,20.50
2018-07-31T01:32:20.105Z,20.60
2018-07-31T01:34:49.107Z,20.60
2018-07-31T01:37:18.120Z,20.50
2018-07-31T01:39:47.116Z,20.40
2018-07-31T01:44:44.813Z,20.40
2018-07-31T01:47:14.033Z,20.40
2018-07-31T01:49:43.270Z,20.40
2018-07-31T01:52:12.294Z,20.50
2018-07-31T01:57:09.995Z,20.30
2018-07-31T01:59:39.042Z,20.30
2018-07-31T02:02:08.199Z,20.50
2018-07-31T02:04:37.243Z,20.40
2018-07-31T02:07:06.259Z,20.40
2018-07-31T02:09:35.352Z,20.40
2018-07-31T02:12:04.367Z,20.20
2018-07-31T02:14:33.472Z,20.20
2018-07-31T02:17:02.522Z,20.20
2018-07-31T02:19:31.550Z,20.10
2018-07-31T02:22:00.575Z,20.20
2018-07-31T02:24:29.657Z,20.10
2018-07-31T02:26:58.669Z,20.00
2018-07-31T02:32:01.933Z,19.90
2018-07-31T02:34:30.934Z,19.80
2018-07-31T02:36:59.967Z,19.90
2018-07-31T02:39:29.036Z,19.80
2018-07-31T02:41:58.030Z,19.60
2018-07-31T02:44:27.098Z,19.70
2018-07-31T02:46:56.274Z,19.80
2018-07-31T02:49:25.320Z,19.70
2018-07-31T02:51:54.355Z,19.70
2018-07-31T02:56:52.056Z,19.50
2018-07-31T02:59:21.129Z,19.40
2018-07-31T03:01:50.153Z,19.40
2018-07-31T03:04:19.177Z,19.40
2018-07-31T03:06:48.236Z,19.50
2018-07-31T03:09:17.230Z,19.30
2018-07-31T03:11:46.257Z,19.40
2018-07-31T03:16:43.883Z,19.40
2018-07-31T03:19:12.943Z,19.20
2018-07-31T03:21:41.956Z,19.20
2018-07-31T03:24:10.976Z,19.10
2018-07-31T03:26:40.089Z,19.20
2018-07-31T03:29:09.180Z,19.30
2018-07-31T03:31:38.185Z,19.30
2018-07-31T03:34:07.200Z,19.30
2018-07-31T03:36:36.218Z,19.20
2018-07-31T03:41:34.982Z,19.30
2018-07-31T03:44:04.405Z,19.10
2018-07-31T03:46:33.471Z,19.10
2018-07-31T03:49:02.493Z,19.10
2018-07-31T03:51:31.533Z,19.30
2018-07-31T03:54:00.683Z,19.20
2018-07-31T03:56:29.720Z,19.20
2018-07-31T03:58:58.732Z,19.10
2018-07-31T04:01:27.777Z,19.20
2018-07-31T04:03:56.834Z,19.20
2018-07-31T04:06:25.828Z,19.20
2018-07-31T04:08:54.842Z,19.10
2018-07-31T04:11:23.862Z,19.10
2018-07-31T04:13:52.959Z,19.10
2018-07-31T04:16:22.017Z,19.10
2018-07-31T04:18:51.032Z,19.10
2018-07-31T04:21:20.078Z,19.00
2018-07-31T04:23:49.107Z,18.90
2018-07-31T04:26:18.149Z,19.00
2018-07-31T04:28:47.166Z,19.10
2018-07-31T04:31:16.254Z,19.00
2018-07-31T04:33:45.393Z,19.10
2018-07-31T04:36:14.497Z,19.40
2018-07-31T04:38:43.474Z,19.30
2018-07-31T04:41:12.518Z,19.40
2018-07-31T04:43:41.682Z,19.80
2018-07-31T04:46:10.709Z,20.10
2018-07-31T04:51:08.415Z,20.50
2018-07-31T04:53:37.465Z,20.50
2018-07-31T04:56:06.535Z,20.60
2018-07-31T04:58:36.319Z,20.50
2018-07-31T05:01:05.387Z,20.20
2018-07-31T05:03:34.477Z,19.80
2018-07-31T05:06:03.499Z,19.90
2018-07-31T05:08:32.562Z,19.90
2018-07-31T05:11:08.349Z,19.90
2018-07-31T05:13:37.544Z,19.90
2018-07-31T05:16:06.666Z,20.10
2018-07-31T05:18:35.697Z,20.50
2018-07-31T05:23:33.338Z,21.10
2018-07-31T05:26:02.371Z,21.30
2018-07-31T05:28:31.453Z,21.50
2018-07-31T05:31:00.786Z,21.50
2018-07-31T05:33:29.801Z,21.40
2018-07-31T05:35:58.860Z,21.40
2018-07-31T05:38:27.887Z,21.70
2018-07-31T05:40:56.953Z,21.80
2018-07-31T05:43:25.954Z,22.30
2018-07-31T05:45:54.978Z,22.50
2018-07-31T05:48:24.173Z,22.70
2018-07-31T05:50:53.248Z,22.90
2018-07-31T05:53:22.371Z,23.00
2018-07-31T05:55:51.367Z,23.10
2018-07-31T05:58:20.405Z,23.20
2018-07-31T06:00:49.452Z,23.50
2018-07-31T06:03:18.482Z,23.70
2018-07-31T06:05:47.524Z,24.00
2018-07-31T06:08:16.545Z,24.30
2018-07-31T06:10:45.591Z,24.50
2018-07-31T06:13:14.785Z,24.50
2018-07-31T06:15:44.009Z,24.80
2018-07-31T06:18:13.069Z,25.00
2018-07-31T06:25:39.761Z,25.70
2018-07-31T06:30:37.373Z,25.80
2018-07-31T06:33:06.445Z,25.80
2018-07-31T06:35:35.514Z,25.80
2018-07-31T06:38:04.637Z,25.70
2018-07-31T06:40:33.735Z,25.90
2018-07-31T06:43:02.763Z,26.30
2018-07-31T06:45:31.836Z,26.30
2018-07-31T06:48:00.862Z,26.40
2018-07-31T06:52:58.792Z,27.20
2018-07-31T06:55:27.871Z,27.60
2018-07-31T06:57:56.915Z,27.60
2018-07-31T07:00:25.994Z,27.10
2018-07-31T07:02:55.105Z,27.00
2018-07-31T07:05:24.206Z,27.30
2018-07-31T07:07:53.416Z,27.20
2018-07-31T07:10:22.485Z,27.20
2018-07-31T07:12:51.645Z,27.20
2018-07-31T07:15:20.699Z,27.70
2018-07-31T07:17:49.719Z,27.90
2018-07-31T07:20:19.191Z,27.90
2018-07-31T07:22:48.262Z,28.30
2018-07-31T07:25:17.380Z,28.80
2018-07-31T07:27:46.437Z,28.30
2018-07-31T07:30:15.496Z,28.20
2018-07-31T07:32:44.541Z,28.50
2018-07-31T07:35:13.574Z,28.30
2018-07-31T07:42:39.964Z,28.80
2018-07-31T07:45:09.093Z,29.60
2018-07-31T07:47:38.129Z,29.60
2018-07-31T07:50:07.141Z,29.70
2018-07-31T07:52:36.382Z,30.10
2018-07-31T07:55:05.526Z,30.00
2018-07-31T07:57:34.582Z,30.30
2018-07-31T08:00:05.472Z,31.10
2018-07-31T08:02:35.009Z,30.90
2018-07-31T08:05:04.128Z,30.80
2018-07-31T08:07:33.217Z,31.30
2018-07-31T08:10:02.427Z,31.40
2018-07-31T08:15:00.279Z,31.00
2018-07-31T08:17:29.379Z,31.10
2018-07-31T08:19:58.406Z,31.20
2018-07-31T08:22:27.502Z,31.40
2018-07-31T08:24:56.560Z,31.70
2018-07-31T08:27:26.220Z,32.20
2018-07-31T08:29:55.259Z,32.20
2018-07-31T08:32:24.382Z,32.00
2018-07-31T08:34:53.485Z,32.10
2018-07-31T08:37:22.543Z,32.40
2018-07-31T08:39:51.749Z,33.00
2018-07-31T08:42:20.758Z,33.10
2018-07-31T08:44:49.860Z,33.20
2018-07-31T08:47:19.249Z,34.10
2018-07-31T08:49:48.264Z,34.90
2018-07-31T08:52:17.297Z,34.60
2018-07-31T08:54:46.459Z,34.50
2018-07-31T08:57:15.595Z,34.70
2018-07-31T08:59:44.645Z,34.80
2018-07-31T09:02:13.669Z,34.30
2018-07-31T09:04:42.789Z,33.70
2018-07-31T09:07:11.813Z,33.90
2018-07-31T09:09:40.819Z,34.90
2018-07-31T09:14:38.652Z,34.90
2018-07-31T09:17:07.690Z,34.50
2018-07-31T09:19:36.724Z,34.60
2018-07-31T09:22:05.880Z,35.00
2018-07-31T09:24:35.098Z,34.30
2018-07-31T09:27:04.180Z,35.20
2018-07-31T09:29:33.256Z,35.60
2018-07-31T09:32:02.373Z,34.90
2018-07-31T09:34:35.266Z,35.90
2018-07-31T09:37:04.442Z,35.80
2018-07-31T09:39:33.528Z,35.80
2018-07-31T09:44:31.178Z,35.50
2018-07-31T09:47:00.189Z,35.40
2018-07-31T09:49:29.367Z,35.10
2018-07-31T09:51:58.398Z,35.50
2018-07-31T09:54:27.660Z,36.00
2018-07-31T09:56:56.660Z,36.50
2018-07-31T09:59:25.723Z,36.00
2018-07-31T10:01:54.871Z,35.40
2018-07-31T10:06:52.535Z,36.10
2018-07-31T10:09:21.569Z,35.70
2018-07-31T10:11:50.640Z,35.90
2018-07-31T10:14:19.704Z,36.10
2018-07-31T10:16:48.956Z,36.90
2018-07-31T10:19:18.018Z,36.40
2018-07-31T10:21:47.185Z,35.80
2018-07-31T10:24:16.360Z,36.60
2018-07-31T10:26:45.521Z,35.90
2018-07-31T10:29:14.636Z,37.00
2018-07-31T10:31:43.763Z,37.00
2018-07-31T10:34:12.849Z,37.10
2018-07-31T10:36:41.991Z,35.90
2018-07-31T10:41:39.734Z,34.90
2018-07-31T10:44:08.933Z,34.60
2018-07-31T10:46:37.989Z,33.80
2018-07-31T10:49:07.078Z,34.40
2018-07-31T10:51:36.110Z,34.60
2018-07-31T10:54:05.217Z,34.20
2018-07-31T10:56:34.254Z,34.00
2018-07-31T10:59:03.540Z,34.50
2018-07-31T11:01:34.539Z,34.60
2018-07-31T11:04:03.737Z,34.00
2018-07-31T11:06:32.857Z,34.20
2018-07-31T11:09:01.977Z,34.90
2018-07-31T11:11:31.058Z,35.10
2018-07-31T11:14:00.107Z,35.80
2018-07-31T11:16:29.152Z,37.00
2018-07-31T11:18:58.197Z,36.30
2018-07-31T11:21:27.294Z,36.10
2018-07-31T11:23:56.363Z,36.80
2018-07-31T11:26:25.403Z,36.50
2018-07-31T11:28:54.472Z,35.80
2018-07-31T11:31:23.498Z,36.90
2018-07-31T11:33:52.590Z,36.50
2018-07-31T11:36:21.685Z,35.40
2018-07-31T11:38:50.838Z,35.10
2018-07-31T11:41:19.870Z,34.90
2018-07-31T11:43:48.892Z,34.60
2018-07-31T11:46:17.943Z,35.70
2018-07-31T11:48:47.020Z,35.60
2018-07-31T11:51:16.102Z,36.40
2018-07-31T11:53:45.202Z,37.00
2018-07-31T11:56:14.210Z,37.30
2018-07-31T11:58:43.321Z,35.80
2018-07-31T12:01:12.459Z,35.50
2018-07-31T12:03:41.567Z,36.10
2018-07-31T12:06:10.679Z,37.10
2018-07-31T12:08:39.801Z,37.90
2018-07-31T12:11:08.786Z,37.90
2018-07-31T12:13:37.888Z,38.00
2018-07-31T12:16:07.042Z,38.00
2018-07-31T12:18:36.529Z,37.80
2018-07-31T12:21:05.596Z,37.60
2018-07-31T12:23:34.777Z,37.80
2018-07-31T12:26:03.804Z,38.20
2018-07-31T12:28:32.968Z,37.70
2018-07-31T12:31:01.960Z,37.10
2018-07-31T12:33:30.993Z,36.90
2018-07-31T12:36:00.013Z,37.60
2018-07-31T12:38:29.126Z,37.60
2018-07-31T12:40:58.126Z,37.30
2018-07-31T12:43:27.156Z,36.80
2018-07-31T12:45:56.256Z,36.80
2018-07-31T12:48:25.322Z,36.70
2018-07-31T12:50:54.937Z,36.50
2018-07-31T12:53:23.956Z,37.60
2018-07-31T12:55:53.105Z,37.20
2018-07-31T12:58:22.148Z,36.00
2018-07-31T13:00:51.225Z,35.40
2018-07-31T13:03:20.405Z,35.30
2018-07-31T13:05:49.678Z,35.80
2018-07-31T13:08:19.057Z,35.40
2018-07-31T13:15:45.718Z,37.00
2018-07-31T13:18:14.772Z,36.20
2018-07-31T13:20:43.787Z,35.80
2018-07-31T13:23:12.826Z,35.20
2018-07-31T13:25:41.919Z,34.60
2018-07-31T13:28:10.997Z,34.40
2018-07-31T13:30:40.149Z,34.70
2018-07-31T13:33:09.249Z,34.80
2018-07-31T13:35:38.428Z,35.20
2018-07-31T13:38:07.471Z,34.80
2018-07-31T13:40:36.555Z,34.70
2018-07-31T13:43:05.641Z,35.80
2018-07-31T13:45:34.691Z,36.60
2018-07-31T13:48:03.929Z,36.80
2018-07-31T13:50:33.137Z,36.80
2018-07-31T13:53:02.328Z,36.80
2018-07-31T13:55:31.446Z,36.60
2018-07-31T13:58:00.426Z,36.00
2018-07-31T14:00:29.489Z,36.10
2018-07-31T14:02:58.978Z,36.30
2018-07-31T14:05:28.300Z,36.20
2018-07-31T14:07:57.301Z,36.10
2018-07-31T14:10:26.350Z,36.20
2018-07-31T14:12:55.339Z,36.40
2018-07-31T14:15:24.348Z,36.00
2018-07-31T14:17:53.432Z,36.30
2018-07-31T14:20:22.576Z,36.40
2018-07-31T14:22:51.757Z,36.60
2018-07-31T14:25:21.152Z,37.20
2018-07-31T14:27:50.190Z,36.90
2018-07-31T14:30:19.355Z,36.40
2018-07-31T14:32:48.430Z,36.20
2018-07-31T14:35:17.475Z,36.10
2018-07-31T14:40:15.185Z,35.10
2018-07-31T14:42:44.267Z,35.80
2018-07-31T14:45:13.295Z,36.30
2018-07-31T14:47:42.506Z,35.60
2018-07-31T14:50:11.561Z,35.00
2018-07-31T14:52:40.605Z,34.60
2018-07-31T14:55:09.795Z,35.20
2018-07-31T14:57:38.812Z,35.30
2018-07-31T15:00:08.449Z,35.20
2018-07-31T15:02:37.501Z,35.00
2018-07-31T15:05:06.784Z,35.70
2018-07-31T15:07:35.937Z,35.80
2018-07-31T15:10:05.641Z,35.80
2018-07-31T15:12:34.695Z,35.10
2018-07-31T15:15:03.843Z,34.90
2018-07-31T15:17:33.029Z,35.20
2018-07-31T15:20:02.298Z,35.30
2018-07-31T15:22:31.428Z,35.00
2018-07-31T15:25:00.447Z,34.90
2018-07-31T15:27:29.516Z,34.80
2018-07-31T15:29:58.583Z,35.30
2018-07-31T15:32:27.571Z,34.90
2018-07-31T15:34:56.603Z,34.90
2018-07-31T15:37:25.650Z,34.60
2018-07-31T15:39:54.716Z,34.70
2018-07-31T15:42:23.755Z,35.30
2018-07-31T15:44:52.835Z,35.10
2018-07-31T15:47:21.918Z,35.20
2018-07-31T15:49:50.977Z,35.30
2018-07-31T15:52:20.071Z,35.80
2018-07-31T15:54:49.150Z,35.80
2018-07-31T15:57:18.281Z,35.70
2018-07-31T15:59:47.336Z,35.80
2018-07-31T16:02:16.361Z,35.80
2018-07-31T16:04:45.361Z,35.30
2018-07-31T16:07:14.394Z,35.00
2018-07-31T16:09:43.402Z,34.70
2018-07-31T16:12:12.514Z,34.90
2018-07-31T16:14:41.629Z,34.90
2018-07-31T16:17:10.810Z,34.50
2018-07-31T16:19:39.939Z,34.40
2018-07-31T16:22:09.008Z,34.30
2018-07-31T16:24:38.022Z,34.70
2018-07-31T16:27:07.053Z,35.00
2018-07-31T16:29:36.146Z,34.90
2018-07-31T16:32:05.208Z,34.90
2018-07-31T16:34:34.283Z,35.30
2018-07-31T16:37:03.292Z,34.90
2018-07-31T16:39:32.348Z,34.40
2018-07-31T16:42:01.488Z,34.50
2018-07-31T16:44:30.721Z,34.70
2018-07-31T16:46:59.853Z,34.80
2018-07-31T16:49:28.902Z,34.50
2018-07-31T16:51:57.927Z,34.20
2018-07-31T16:54:26.997Z,34.20
2018-07-31T16:59:24.755Z,34.20
2018-07-31T17:01:53.750Z,34.20
2018-07-31T17:04:22.925Z,34.10
2018-07-31T17:06:51.960Z,34.00
2018-07-31T17:09:20.973Z,33.80
2018-07-31T17:11:50.104Z,33.70
2018-07-31T17:14:19.188Z,33.50
2018-07-31T17:16:48.706Z,33.40
2018-07-31T17:19:17.916Z,33.30
2018-07-31T17:21:46.925Z,33.20
2018-07-31T17:24:16.005Z,33.30
2018-07-31T17:26:45.188Z,33.30
2018-07-31T17:29:14.179Z,33.20
2018-07-31T17:31:43.175Z,33.10
2018-07-31T17:34:12.219Z,33.00
2018-07-31T17:36:41.312Z,33.00
2018-07-31T17:39:11.325Z,33.00
2018-07-31T17:41:41.026Z,33.00
2018-07-31T17:46:38.805Z,32.80
2018-07-31T17:49:07.963Z,32.80
2018-07-31T17:51:37.152Z,32.70
2018-07-31T17:54:06.418Z,32.50
2018-07-31T17:56:35.475Z,32.50
2018-07-31T17:59:04.484Z,32.40
2018-07-31T18:01:33.536Z,32.30
2018-07-31T18:04:02.601Z,32.30
2018-07-31T18:06:31.650Z,32.20
2018-07-31T18:09:00.713Z,32.00
2018-07-31T18:11:29.780Z,31.90
2018-07-31T18:13:58.877Z,31.80
2018-07-31T18:16:27.920Z,31.80
2018-07-31T18:18:56.972Z,31.80
2018-07-31T18:21:26.022Z,31.60
2018-07-31T18:23:55.076Z,31.50
2018-07-31T18:26:24.087Z,31.50
2018-07-31T18:28:53.141Z,31.50
2018-07-31T18:31:22.182Z,31.50
2018-07-31T18:33:51.195Z,31.40
2018-07-31T18:38:48.949Z,31.00
2018-07-31T18:41:17.988Z,31.00
2018-07-31T18:46:15.711Z,30.80
2018-07-31T18:48:44.797Z,30.70
2018-07-31T18:51:13.908Z,30.60
2018-07-31T18:53:42.977Z,30.60
2018-07-31T18:56:12.075Z,30.50
2018-07-31T18:58:41.175Z,30.40
2018-07-31T19:01:10.362Z,30.40
2018-07-31T19:03:39.297Z,30.30
2018-07-31T19:06:08.331Z,30.00
2018-07-31T19:08:37.348Z,30.00
2018-07-31T19:11:06.372Z,30.00
2018-07-31T19:13:35.398Z,29.90
2018-07-31T19:16:04.462Z,29.90
2018-07-31T19:18:33.561Z,29.90
2018-07-31T19:23:31.348Z,29.80
2018-07-31T19:26:00.477Z,29.70
2018-07-31T19:28:29.597Z,29.70
2018-07-31T19:30:58.621Z,29.70
2018-07-31T19:33:27.775Z,29.70
2018-07-31T19:35:56.865Z,29.50
2018-07-31T19:38:25.893Z,29.50
2018-07-31T19:40:55.229Z,29.40
2018-07-31T19:45:53.058Z,29.30
2018-07-31T19:48:23.143Z,29.30
2018-07-31T19:50:52.230Z,29.20
2018-07-31T19:53:21.314Z,29.10
2018-07-31T19:55:50.329Z,28.90
2018-07-31T19:58:19.434Z,28.80
2018-07-31T20:00:48.416Z,28.70
2018-07-31T20:03:17.481Z,28.70
2018-07-31T20:05:46.558Z,28.70
2018-07-31T20:08:15.641Z,28.60
2018-07-31T20:15:42.022Z,28.30
2018-07-31T20:18:10.999Z,28.30
2018-07-31T20:20:40.059Z,28.20
2018-07-31T20:23:09.133Z,28.10
2018-07-31T20:25:38.145Z,28.00
2018-07-31T20:28:07.161Z,27.90
2018-07-31T20:30:36.326Z,27.90
2018-07-31T20:33:05.380Z,27.80
2018-07-31T20:35:34.416Z,27.80
2018-07-31T20:38:03.466Z,27.70
2018-07-31T20:40:32.506Z,27.60
2018-07-31T20:43:01.556Z,27.50
2018-07-31T20:45:30.596Z,27.50
2018-07-31T20:47:59.637Z,27.40
2018-07-31T20:50:28.737Z,27.40
2018-07-31T20:52:57.843Z,27.30
2018-07-31T20:55:26.987Z,27.20
2018-07-31T20:57:56.263Z,27.20
2018-07-31T21:00:25.283Z,27.20
2018-07-31T21:02:54.324Z,27.10
2018-07-31T21:05:23.348Z,27.10
2018-07-31T21:07:52.604Z,27.00
2018-07-31T21:10:21.745Z,26.90
2018-07-31T21:15:19.378Z,26.80
2018-07-31T21:17:48.426Z,26.80
2018-07-31T21:22:46.077Z,26.60
2018-07-31T21:25:15.243Z,26.60
2018-07-31T21:27:44.259Z,26.50
2018-07-31T21:30:13.288Z,26.50
2018-07-31T21:32:42.338Z,26.50
2018-07-31T21:35:11.368Z,26.50
2018-07-31T21:37:40.417Z,26.50
2018-07-31T21:40:09.437Z,26.50
2018-07-31T21:45:07.182Z,26.40
2018-07-31T21:47:36.242Z,26.30
2018-07-31T21:50:05.205Z,26.20
2018-07-31T21:52:34.311Z,26.00
2018-07-31T21:55:03.404Z,26.00
2018-07-31T21:57:32.398Z,25.80
2018-07-31T22:02:30.073Z,25.70
2018-07-31T22:07:27.674Z,25.60
2018-07-31T22:09:56.690Z,25.60
2018-07-31T22:12:25.725Z,25.60
2018-07-31T22:14:54.727Z,25.60
2018-07-31T22:17:24.647Z,25.60
2018-07-31T22:19:53.659Z,25.50
2018-07-31T22:22:22.666Z,25.50
2018-07-31T22:24:51.704Z,25.50
2018-07-31T22:27:20.671Z,25.40
2018-07-31T22:29:49.733Z,25.30
2018-07-31T22:32:18.769Z,25.20
2018-07-31T22:34:47.810Z,25.20
2018-07-31T22:37:17.113Z,25.20
2018-07-31T22:39:46.120Z,25.20
2018-07-31T22:42:15.160Z,25.10
2018-07-31T22:44:44.186Z,25.20
2018-07-31T22:47:13.200Z,25.10
2018-07-31T22:49:42.232Z,25.10
2018-07-31T22:52:11.251Z,25.10
2018-07-31T22:54:40.264Z,25.10
2018-07-31T22:57:09.338Z,25.00
2018-07-31T22:59:38.408Z,25.00
2018-07-31T23:02:07.519Z,24.90
2018-07-31T23:04:36.567Z,24.90
2018-07-31T23:07:05.767Z,24.80
2018-07-31T23:09:34.815Z,24.80
2018-07-31T23:12:04.111Z,24.70
2018-07-31T23:14:33.106Z,24.70
2018-07-31T23:17:02.133Z,24.80
2018-07-31T23:19:31.117Z,24.70
2018-07-31T23:22:00.249Z,24.60
2018-07-31T23:24:29.238Z,24.70
2018-07-31T23:26:58.234Z,24.60
2018-07-31T23:29:27.249Z,24.60
2018-07-31T23:31:56.262Z,24.50
2018-07-31T23:34:25.365Z,24.40
2018-07-31T23:36:54.385Z,24.40
2018-07-31T23:39:23.401Z,24.30
2018-07-31T23:41:52.417Z,24.30
2018-07-31T23:44:21.415Z,24.20
2018-07-31T23:46:50.442Z,24.10
2018-07-31T23:49:19.538Z,24.10
2018-07-31T23:51:48.549Z,24.00
2018-07-31T23:54:24.326Z,23.90
2018-07-31T23:56:53.557Z,24.00
2018-07-31T23:59:22.576Z,23.90
